Time;durP1;ratioP1;P1;durP2;ratioP2;P2;SDS_P1;SDS_P2;PMS_P1;PMS_P2;Temp;Humidity;BMP_temperature;BMP_pressure;BME280_temperature;BME280_humidity;BME280_pressure;Samples;Min_cycle;Max_cycle;Signal;HPM_P1;HPM_P2
2022/08/04 00:00:25;;;;;;;2.55;1.50;;;;;;;17.97;86.42;98114.91;5048874;28;20317;-69
2022/08/04 00:03:04;;;;;;;1.90;1.60;;;;;;;17.97;86.65;98112.25;5043797;28;20064;-69
2022/08/04 00:05:54;;;;;;;2.85;1.92;;;;;;;17.97;86.69;98115.75;5043758;28;20314;-69
2022/08/04 00:08:39;;;;;;;4.55;1.83;;;;;;;17.94;86.69;98109.75;5061190;28;20025;-69
2022/08/04 00:11:07;;;;;;;2.75;1.80;;;;;;;17.93;86.71;98113.34;5063635;28;20021;-69
2022/08/04 00:13:38;;;;;;;2.97;2.00;;;;;;;17.87;86.91;98106.56;5062792;28;20032;-69
2022/08/04 00:16:08;;;;;;;6.68;2.25;;;;;;;17.80;86.75;98101.66;5062211;28;20062;-69
2022/08/04 00:18:34;;;;;;;2.72;1.88;;;;;;;17.68;87.32;98099.72;5063298;28;20025;-69
2022/08/04 00:21:04;;;;;;;2.15;1.85;;;;;;;17.73;87.36;98105.63;5060285;28;20021;-69
2022/08/04 00:23:33;;;;;;;3.28;2.22;;;;;;;17.74;87.44;98107.31;5055332;28;20089;-69
2022/08/04 00:25:59;;;;;;;2.75;1.77;;;;;;;17.75;87.52;98111.72;5043532;28;20224;-69
2022/08/04 00:28:26;;;;;;;5.00;2.10;;;;;;;17.75;87.47;98111.72;5043351;28;20045;-69
2022/08/04 00:30:53;;;;;;;3.28;1.80;;;;;;;17.73;87.44;98111.81;5043532;28;20025;-69
2022/08/04 00:33:19;;;;;;;2.88;1.50;;;;;;;17.61;87.09;98108.97;5043410;28;20060;-69
2022/08/04 00:35:47;;;;;;;2.67;1.70;;;;;;;17.55;88.04;98111.97;5043511;28;20025;-69
2022/08/04 00:38:15;;;;;;;5.22;2.00;;;;;;;17.49;88.39;98118.47;5043324;28;20029;-69
2022/08/04 00:41:05;;;;;;;2.25;1.63;;;;;;;17.54;88.47;98115.56;5060239;28;20024;-69
2022/08/04 00:43:33;;;;;;;9.23;1.90;;;;;;;17.40;88.65;98113.63;5063286;28;20037;-69
2022/08/04 00:46:17;;;;;;;3.47;1.83;;;;;;;17.25;88.75;98115.31;5061587;28;20276;-69
2022/08/04 00:48:51;;;;;;;1.75;1.30;;;;;;;17.28;89.50;98115.16;5062912;28;20070;-69
2022/08/04 00:51:28;;;;;;;1.95;1.60;;;;;;;17.25;89.54;98115.31;5043289;28;20051;-69
2022/08/04 00:53:59;;;;;;;3.38;1.80;;;;;;;17.22;89.52;98115.50;5043254;28;20221;-69
2022/08/04 00:56:53;;;;;;;4.55;2.30;;;;;;;17.06;89.97;98114.59;5043376;28;20091;-69
2022/08/04 00:59:38;;;;;;;2.03;1.83;;;;;;;17.03;90.43;98119.22;5043515;28;20385;-69
2022/08/04 01:02:25;;;;;;;4.28;2.03;;;;;;;17.13;90.38;98120.47;5046680;28;20032;-69
2022/08/04 01:05:11;;;;;;;2.22;1.70;;;;;;;17.14;89.73;98120.38;5046669;28;20344;-69
2022/08/04 01:07:48;;;;;;;2.97;1.80;;;;;;;17.13;89.86;98116.00;5046660;28;20240;-69
2022/08/04 01:10:32;;;;;;;3.08;1.75;;;;;;;17.02;90.48;98118.38;5046603;28;20084;-69
2022/08/04 01:13:00;;;;;;;2.35;1.52;;;;;;;16.97;90.62;98117.75;5046457;28;20105;-69
2022/08/04 01:15:43;;;;;;;4.57;2.28;;;;;;;16.95;89.85;98119.63;5046540;28;20053;-69
2022/08/04 01:18:22;;;;;;;2.42;1.70;;;;;;;16.93;90.51;98118.00;5058559;28;20033;-69
2022/08/04 01:21:10;;;;;;;4.20;2.15;;;;;;;16.95;90.17;98121.41;5053538;28;20040;-69
2022/08/04 01:24:17;;;;;;;2.75;1.85;;;;;;;16.86;91.30;98125.44;5046378;28;20025;-69
2022/08/04 01:26:48;;;;;;;5.13;1.73;;;;;;;16.91;90.91;98120.75;5060300;28;20312;-69
2022/08/04 01:29:14;;;;;;;3.70;1.50;;;;;;;16.80;90.84;98116.94;5064330;28;20079;-69
2022/08/04 01:32:10;;;;;;;2.70;2.13;;;;;;;16.79;90.92;98118.72;5064462;28;20092;-69
2022/08/04 01:34:42;;;;;;;2.50;2.00;;;;;;;16.67;91.32;98115.81;5064079;28;20053;-69
2022/08/04 01:37:18;;;;;;;5.35;1.90;;;;;;;16.57;92.11;98112.78;5064426;28;20029;-69
2022/08/04 01:39:50;;;;;;;4.88;1.88;;;;;;;16.53;92.96;98113.03;5064316;28;20024;-69
2022/08/04 01:42:18;;;;;;;3.08;2.00;;;;;;;16.54;93.22;98115.59;5064246;28;20113;-69
2022/08/04 01:44:48;;;;;;;2.70;2.10;;;;;;;16.69;93.27;98109.50;5047404;28;20087;-69
2022/08/04 01:47:16;;;;;;;2.92;1.60;;;;;;;16.65;92.16;98113.25;5044255;28;20340;-69
2022/08/04 01:49:48;;;;;;;2.28;1.80;;;;;;;16.72;92.40;98113.81;5045288;28;20035;-69
2022/08/04 01:52:16;;;;;;;4.85;1.90;;;;;;;16.73;92.00;98110.19;5044189;28;20029;-69
2022/08/04 01:54:42;;;;;;;2.95;1.80;;;;;;;16.58;91.70;98106.53;5047939;28;20036;-69
2022/08/04 01:57:10;;;;;;;3.17;1.70;;;;;;;16.46;93.25;98107.16;5064033;28;20029;-69
2022/08/04 01:59:37;;;;;;;2.35;1.77;;;;;;;16.49;93.41;98109.66;5062829;28;20033;-69
2022/08/04 02:02:06;;;;;;;3.05;1.92;;;;;;;16.50;92.63;98108.75;5045860;28;20032;-69
2022/08/04 02:04:32;;;;;;;4.10;1.80;;;;;;;16.51;92.96;98109.59;5045643;28;20351;-69
2022/08/04 02:07:24;;;;;;;3.10;1.95;;;;;;;16.48;93.25;98110.59;5046724;28;20021;-69
2022/08/04 02:10:06;;;;;;;4.97;1.98;;;;;;;16.58;92.95;98111.00;5045536;28;20225;-69
2022/08/04 02:12:49;;;;;;;2.90;1.90;;;;;;;16.58;93.05;98111.00;5045123;28;20045;-69
2022/08/04 02:15:32;;;;;;;3.13;2.00;;;;;;;16.64;92.67;98111.53;5049216;28;20309;-69
2022/08/04 02:18:24;;;;;;;4.75;1.90;;;;;;;16.67;92.24;98100.75;5064765;28;20062;-69
2022/08/04 02:20:56;;;;;;;5.28;1.95;;;;;;;16.45;92.39;98094.81;5048717;28;20113;-69
2022/08/04 02:23:40;;;;;;;3.45;1.77;;;;;;;16.33;93.01;98099.88;5064561;28;20025;-69
2022/08/04 02:26:16;;;;;;;3.53;1.80;;;;;;;16.41;93.25;98103.84;5056220;28;20033;-69
2022/08/04 02:28:59;;;;;;;4.18;1.98;;;;;;;16.49;92.97;98107.00;5044944;28;20345;-69
2022/08/04 02:31:45;;;;;;;2.55;1.70;;;;;;;16.39;93.47;98100.41;5045134;28;20075;-69
2022/08/04 02:34:37;;;;;;;5.63;2.00;;;;;;;16.40;93.71;98101.28;5045218;28;20085;-69
2022/08/04 02:37:03;;;;;;;3.95;2.17;;;;;;;16.40;93.78;98104.81;5045003;28;20071;-69
2022/08/04 02:39:33;;;;;;;2.30;1.80;;;;;;;16.32;93.73;98098.13;5044915;28;20021;-69
2022/08/04 02:42:01;;;;;;;3.50;1.85;;;;;;;16.32;93.92;98091.03;5045162;28;20088;-69
2022/08/04 02:44:27;;;;;;;2.53;1.80;;;;;;;16.31;93.73;98091.13;5050934;28;20212;-69
2022/08/04 02:46:54;;;;;;;2.00;1.75;;;;;;;16.03;93.53;98085.47;5064425;28;20044;-69
2022/08/04 02:49:22;;;;;;;3.13;1.98;;;;;;;15.98;95.90;98088.34;5044738;28;20320;-69
2022/08/04 02:51:58;;;;;;;2.83;1.85;;;;;;;16.06;95.93;98088.84;5051291;28;20021;-69
2022/08/04 02:54:30;;;;;;;6.18;2.10;;;;;;;16.11;94.89;98092.09;5064610;28;20021;-69
2022/08/04 02:56:57;;;;;;;6.20;2.13;;;;;;;15.90;95.21;98085.22;5046152;28;20039;-69
2022/08/04 02:59:25;;;;;;;4.30;2.10;;;;;;;15.87;95.53;98085.38;5044583;28;20367;-69
2022/08/04 03:01:54;;;;;;;6.47;2.00;;;;;;;15.99;95.78;98092.75;5055078;28;20020;-69
2022/08/04 03:04:42;;;;;;;2.90;2.10;;;;;;;16.04;95.38;98087.22;5064507;28;20047;-69
2022/08/04 03:07:36;;;;;;;5.25;1.95;;;;;;;15.99;95.32;98087.44;5062695;28;20037;-69
2022/08/04 03:10:20;;;;;;;3.42;2.00;;;;;;;16.01;95.06;98084.69;5050077;28;20033;-69
2022/08/04 03:13:23;;;;;;;2.35;1.85;;;;;;;16.00;95.10;98086.50;5044548;28;20218;-69
2022/08/04 03:16:00;;;;;;;;;;;;;;;15.95;95.08;98085.00;5044763;28;20035;-69
2022/08/04 03:18:56;;;;;;;3.55;2.03;;;;;;;15.88;95.23;98079.13;5044296;28;19976;-69
2022/08/04 03:21:44;;;;;;;5.05;1.80;;;;;;;15.87;95.25;98084.50;5044133;28;20029;-69
2022/08/04 03:24:47;;;;;;;8.75;2.20;;;;;;;15.81;95.36;98085.66;5054565;28;20025;-69
2022/08/04 03:27:34;;;;;;;2.90;1.77;;;;;;;15.84;95.33;98074.03;5044050;28;20029;-69
2022/08/04 03:30:07;;;;;;;2.78;2.00;;;;;;;15.68;95.36;98084.56;5044086;28;20044;-69
2022/08/04 03:32:44;;;;;;;3.63;1.80;;;;;;;15.55;96.20;98082.56;5044017;28;20025;-69
2022/08/04 03:35:40;;;;;;;3.58;2.15;;;;;;;15.69;96.70;98080.94;5044044;28;20053;-69
2022/08/04 03:38:23;;;;;;;5.78;2.05;;;;;;;15.74;96.54;98083.38;5044041;28;20025;-69
2022/08/04 03:41:00;;;;;;;3.55;2.10;;;;;;;15.70;96.08;98077.38;5044069;28;20057;-69
2022/08/04 03:43:28;;;;;;;4.80;2.33;;;;;;;15.62;96.18;98090.16;5043945;28;20379;-69
2022/08/04 03:46:24;;;;;;;5.50;2.72;;;;;;;15.58;96.33;98085.94;5044209;28;20029;-69
2022/08/04 03:49:18;;;;;;;3.13;2.10;;;;;;;15.61;96.60;98096.41;5045673;28;20032;-69
2022/08/04 03:55:15;;;;;;;3.38;2.30;;;;;;;15.63;96.53;98091.84;5062081;28;20044;-69
2022/08/04 03:57:59;;;;;;;6.03;1.77;;;;;;;15.49;95.65;98089.00;5063758;28;20029;-69
2022/08/04 04:01:11;;;;;;;2.33;1.80;;;;;;;15.60;96.49;98092.00;5063783;28;20092;-69
2022/08/04 04:04:02;;;;;;;3.03;2.00;;;;;;;15.58;96.43;98088.59;5056137;28;20056;-69
2022/08/04 04:06:48;;;;;;;6.78;2.40;;;;;;;15.53;96.42;98084.44;5063764;28;20058;-69
2022/08/04 04:09:32;;;;;;;3.00;2.10;;;;;;;15.53;96.76;98084.44;5063673;28;20071;-69
2022/08/04 04:12:13;;;;;;;5.88;2.25;;;;;;;15.44;97.11;98088.34;5063651;28;20106;-69
2022/08/04 04:14:54;;;;;;;2.75;1.98;;;;;;;15.49;97.04;98089.00;5063566;28;20045;-69
2022/08/04 04:17:22;;;;;;;5.25;2.03;;;;;;;15.49;96.85;98089.00;5063709;28;20043;-69
2022/08/04 04:20:08;;;;;;;3.97;2.33;;;;;;;15.54;96.17;98086.16;5063595;28;20052;-69
2022/08/04 04:22:58;;;;;;;3.13;2.30;;;;;;;15.57;95.93;98092.19;5063480;28;20032;-69
2022/08/04 04:25:45;;;;;;;2.78;2.38;;;;;;;15.63;95.95;98091.84;5063493;28;20426;-69
2022/08/04 04:28:10;;;;;;;2.75;2.15;;;;;;;15.62;96.18;98095.44;5063245;28;20048;-69
2022/08/04 04:30:50;;;;;;;4.22;1.90;;;;;;;15.62;96.19;98094.56;5063444;28;20024;-69
2022/08/04 04:34:04;;;;;;;4.72;2.05;;;;;;;15.61;96.31;98101.69;5063374;28;20032;-69
2022/08/04 04:37:01;;;;;;;3.60;2.17;;;;;;;15.69;96.23;98102.19;5045579;28;20165;-69
2022/08/04 04:39:53;;;;;;;5.15;2.28;;;;;;;15.71;96.43;98096.78;5045586;28;20029;-69
2022/08/04 04:42:21;;;;;;;4.35;2.30;;;;;;;15.84;96.40;98101.44;5045522;28;20040;-69
2022/08/04 04:45:11;;;;;;;6.65;2.33;;;;;;;15.96;95.90;98095.53;5045507;28;20037;-69
2022/08/04 04:47:44;;;;;;;6.30;2.72;;;;;;;16.04;95.31;98100.47;5045339;28;20368;-69
2022/08/04 04:50:47;;;;;;;4.85;2.00;;;;;;;16.06;94.88;98103.91;5045213;28;20063;-69
2022/08/04 04:53:37;;;;;;;3.67;2.00;;;;;;;16.15;94.79;98109.63;5045220;28;20467;-69
2022/08/04 04:56:22;;;;;;;3.22;2.35;;;;;;;16.28;94.13;98113.38;5045232;28;20052;-69
2022/08/04 04:58:51;;;;;;;5.00;2.30;;;;;;;16.37;93.61;98117.38;5045199;28;20025;-69
2022/08/04 05:01:30;;;;;;;9.27;2.35;;;;;;;16.54;93.06;98123.56;5045156;28;20029;-69
2022/08/04 05:04:04;;;;;;;3.05;2.15;;;;;;;17.11;90.40;98125.84;5045030;28;20139;-69
2022/08/04 05:07:02;;;;;;;9.50;2.08;;;;;;;17.30;89.18;98122.22;5045068;28;20033;-69
2022/08/04 05:10:22;;;;;;;2.63;1.92;;;;;;;18.00;87.10;98133.38;5043774;28;20136;-69
2022/08/04 05:12:57;;;;;;;2.75;2.20;;;;;;;19.68;79.39;98141.75;5043893;28;20041;-69
2022/08/04 05:15:29;;;;;;;4.95;2.00;;;;;;;20.58;74.85;98141.16;5066753;28;20028;-69
2022/08/04 05:17:56;;;;;;;;;;;;;;;21.26;71.96;98148.00;5066879;28;20024;-69
2022/08/04 05:20:27;;;;;;;2.50;1.77;;;;;;;21.95;68.28;98149.34;5066505;28;20196;-69
2022/08/04 05:22:56;;;;;;;2.40;2.00;;;;;;;22.06;67.53;98152.09;5066446;28;20017;-69
2022/08/04 05:25:39;;;;;;;2.20;1.80;;;;;;;22.68;65.68;98157.22;5066294;28;20024;-69
2022/08/04 05:28:09;;;;;;;3.70;1.63;;;;;;;23.02;64.77;98160.88;5066128;28;20033;-69
2022/08/04 05:30:47;;;;;;;3.83;1.55;;;;;;;23.31;64.01;98167.56;5066288;28;20201;-69
2022/08/04 05:33:14;;;;;;;3.05;1.90;;;;;;;23.47;64.13;98168.09;5066391;28;20359;-69
2022/08/04 05:35:48;;;;;;;7.30;1.88;;;;;;;23.81;61.58;98156.38;5066186;28;20037;-69
2022/08/04 05:38:17;;;;;;;2.00;1.60;;;;;;;24.38;60.86;98162.44;5066374;28;20035;-69
2022/08/04 05:40:44;;;;;;;2.58;1.52;;;;;;;24.61;60.56;98158.69;5066059;28;20025;-69
2022/08/04 05:43:11;;;;;;;2.47;1.70;;;;;;;25.13;59.83;98176.75;5066002;28;20021;-69
2022/08/04 05:45:37;;;;;;;1.58;1.45;;;;;;;25.78;58.09;98173.78;5065608;28;20020;-69
2022/08/04 05:48:05;;;;;;;2.10;1.60;;;;;;;25.59;58.83;98168.28;5065675;28;20035;-69
2022/08/04 05:50:32;;;;;;;6.10;1.50;;;;;;;26.49;57.17;98181.72;5065903;28;20269;-69
2022/08/04 05:52:59;;;;;;;7.25;2.00;;;;;;;26.69;56.27;98175.38;5065838;28;20059;-69
2022/08/04 05:55:26;;;;;;;12.10;2.00;;;;;;;26.85;56.90;98181.06;5065784;28;20131;-69
2022/08/04 05:57:52;;;;;;;5.43;1.55;;;;;;;27.53;55.21;98183.63;5065695;28;20027;-69
2022/08/04 06:00:18;;;;;;;1.73;1.63;;;;;;;28.02;53.39;98194.19;5065813;28;20043;-69
2022/08/04 06:02:48;;;;;;;2.70;1.73;;;;;;;28.22;52.60;98184.13;5065621;28;20025;-69
2022/08/04 06:05:17;;;;;;;4.25;1.90;;;;;;;28.71;51.55;98187.28;5065601;28;20020;-69
2022/08/04 06:07:43;;;;;;;2.15;1.60;;;;;;;28.70;51.24;98182.84;5065539;28;20224;-69
2022/08/04 06:10:09;;;;;;;5.00;1.83;;;;;;;29.11;50.46;98195.84;5065537;28;20025;-69
2022/08/04 06:12:46;;;;;;;5.05;1.60;;;;;;;29.30;50.21;98192.13;5065343;28;20021;-69
2022/08/04 06:15:20;;;;;;;2.55;1.85;;;;;;;29.46;49.66;98188.69;5065366;28;20029;-69
2022/08/04 06:17:49;;;;;;;3.10;2.10;;;;;;;29.14;49.58;98179.25;5065329;28;20317;-69
2022/08/04 06:20:15;;;;;;;4.28;2.00;;;;;;;29.78;48.57;98187.09;5065308;28;20033;-69
2022/08/04 06:22:43;;;;;;;3.53;2.03;;;;;;;30.28;48.40;98193.47;5065488;28;20021;-69
2022/08/04 06:25:12;;;;;;;3.55;2.33;;;;;;;30.78;47.50;98190.84;5065233;28;20045;-70
2022/08/04 06:27:39;;;;;;;6.25;2.20;;;;;;;31.56;45.81;98192.97;5064952;28;20045;-70
2022/08/04 06:30:09;;;;;;;2.88;1.90;;;;;;;31.64;45.11;98184.81;5065113;28;20044;-70
2022/08/04 06:32:37;;;;;;;3.63;2.25;;;;;;;30.81;46.92;98179.59;5065245;28;20090;-70
2022/08/04 06:35:05;;;;;;;6.85;2.20;;;;;;;30.92;47.43;98192.88;5065042;28;20312;-70
2022/08/04 06:37:33;;;;;;;2.85;2.13;;;;;;;31.69;45.24;98201.44;5065217;28;20312;-70
2022/08/04 06:40:00;;;;;;;10.07;2.55;;;;;;;31.76;44.16;98188.00;5064945;28;20051;-70
2022/08/04 06:42:26;;;;;;;7.65;2.88;;;;;;;31.89;43.87;98199.25;5064822;28;20225;-70
2022/08/04 06:44:57;;;;;;;6.25;2.45;;;;;;;32.48;43.42;98191.41;5064820;28;20020;-70
2022/08/04 06:47:23;;;;;;;4.93;2.10;;;;;;;32.63;44.32;98194.25;5064896;28;20316;-70
2022/08/04 06:49:51;;;;;;;6.63;2.53;;;;;;;32.83;42.81;98190.03;5064869;28;20092;-70
2022/08/04 06:52:19;;;;;;;5.72;2.28;;;;;;;33.62;41.29;98190.53;5064692;28;20028;-70
2022/08/04 06:54:46;;;;;;;8.05;2.50;;;;;;;32.82;42.48;98181.03;5064858;28;20324;-70
2022/08/04 06:57:19;;;;;;;5.38;2.40;;;;;;;33.08;41.59;98184.28;5064300;28;20024;-70
2022/08/04 06:59:46;;;;;;;3.10;2.38;;;;;;;33.62;40.89;98195.97;5064286;28;20123;-70
2022/08/04 07:02:19;;;;;;;6.80;2.88;;;;;;;32.57;42.37;98182.19;5064447;28;20025;-70
2022/08/04 07:04:46;;;;;;;6.80;2.60;;;;;;;32.55;42.00;98181.50;5064452;28;20044;-70
2022/08/04 07:07:12;;;;;;;7.22;2.50;;;;;;;33.05;42.58;98190.09;5064423;28;20024;-70
2022/08/04 07:09:39;;;;;;;5.90;2.90;;;;;;;34.44;40.17;98200.47;5064422;28;20031;-70
2022/08/04 07:12:06;;;;;;;9.93;2.80;;;;;;;35.06;39.60;98196.22;5064585;28;20097;-70
2022/08/04 07:14:35;;;;;;;8.23;2.97;;;;;;;35.78;39.11;98197.78;5064245;28;20321;-70
2022/08/04 07:17:03;;;;;;;6.78;2.33;;;;;;;36.30;37.43;98191.91;5064465;28;20021;-70
2022/08/04 07:19:31;;;;;;;5.13;2.40;;;;;;;36.44;37.06;98199.16;5064494;28;20049;-70
2022/08/04 07:21:59;;;;;;;4.25;2.78;;;;;;;37.11;36.63;98193.75;5064213;28;20027;-70
2022/08/04 07:24:31;;;;;;;12.10;3.00;;;;;;;36.85;36.18;98187.13;5064284;28;20038;-70
2022/08/04 07:26:57;;;;;;;3.28;2.53;;;;;;;37.26;35.72;98188.97;5064104;28;20020;-70
2022/08/04 07:29:23;;;;;;;6.28;2.80;;;;;;;37.35;35.12;98190.44;5063971;28;20295;-70
2022/08/04 07:31:49;;;;;;;5.80;2.85;;;;;;;36.91;35.87;98182.72;5064048;28;20025;-70
2022/08/04 07:34:15;;;;;;;5.75;3.05;;;;;;;36.79;35.00;98185.22;5063953;28;20366;-70
2022/08/04 07:36:41;;;;;;;8.15;2.72;;;;;;;37.38;35.19;98187.28;5064000;28;20025;-70
2022/08/04 07:39:06;;;;;;;4.88;2.90;;;;;;;37.15;34.53;98181.31;5063988;28;20024;-70
2022/08/04 07:41:32;;;;;;;11.65;2.80;;;;;;;36.56;34.41;98175.59;5063962;28;20020;-70
2022/08/04 07:43:58;;;;;;;7.40;2.72;;;;;;;37.10;35.54;98183.84;5063901;28;20212;-70
2022/08/04 07:46:24;;;;;;;6.03;2.30;;;;;;;38.33;33.86;98185.81;5063938;28;20090;-70
2022/08/04 07:48:50;;;;;;;4.75;2.85;;;;;;;37.60;33.55;98175.06;5064169;28;20028;-70
2022/08/04 07:51:16;;;;;;;4.28;2.72;;;;;;;36.21;34.76;98179.38;5063849;28;20029;-70
2022/08/04 07:53:42;;;;;;;4.07;2.80;;;;;;;37.25;36.43;98190.03;5063711;28;20017;-70
2022/08/04 07:56:09;;;;;;;4.78;2.78;;;;;;;37.05;35.33;98175.38;5063809;28;20031;-70
2022/08/04 07:58:35;;;;;;;4.65;2.75;;;;;;;35.91;35.12;98175.16;5063825;28;20025;-70
2022/08/04 08:01:00;;;;;;;8.55;2.80;;;;;;;36.88;34.92;98179.56;5063740;28;20066;-70
2022/08/04 08:03:26;;;;;;;11.73;2.80;;;;;;;37.38;32.96;98187.28;5063786;28;20123;-70
2022/08/04 08:05:52;;;;;;;3.50;2.53;;;;;;;38.45;31.55;98195.97;5063653;28;20020;-70
2022/08/04 08:08:20;;;;;;;6.07;2.83;;;;;;;39.15;29.93;98195.09;5063736;28;20027;-70
2022/08/04 08:10:47;;;;;;;5.95;2.47;;;;;;;39.28;30.36;98189.50;5067161;28;20020;-70
2022/08/04 08:13:13;;;;;;;4.25;2.85;;;;;;;39.76;28.66;98204.44;5067646;28;20107;-70
2022/08/04 08:15:40;;;;;;;12.48;2.70;;;;;;;40.73;27.45;98201.00;5067730;28;20066;-70
2022/08/04 08:18:05;;;;;;;8.88;2.83;;;;;;;40.43;27.30;98207.25;5067618;28;20025;-70
2022/08/04 08:20:31;;;;;;;6.63;2.70;;;;;;;40.36;27.85;98200.09;5067569;28;20024;-70
2022/08/04 08:22:58;;;;;;;6.57;2.70;;;;;;;41.04;27.52;98196.13;5067573;28;20317;-70
2022/08/04 08:25:24;;;;;;;4.65;2.80;;;;;;;40.76;26.92;98195.00;5067447;28;20091;-70
2022/08/04 08:27:49;;;;;;;8.43;3.08;;;;;;;40.78;27.75;98203.91;5067377;28;20210;-70
2022/08/04 08:30:14;;;;;;;3.35;2.40;;;;;;;41.19;27.55;98190.22;5067435;28;20304;-70
2022/08/04 08:32:40;;;;;;;3.17;2.70;;;;;;;41.05;26.81;98194.22;5067302;28;20032;-70
2022/08/04 08:35:06;;;;;;;3.65;2.72;;;;;;;40.84;26.30;98186.44;5067353;28;20190;-70
2022/08/04 08:37:39;;;;;;;3.90;2.50;;;;;;;40.77;26.33;98191.19;5067488;28;20025;-70
2022/08/04 08:40:31;;;;;;;4.13;2.60;;;;;;;40.21;27.72;98186.66;5067199;28;20048;-70
2022/08/04 08:43:28;;;;;;;5.82;2.72;;;;;;;41.35;26.61;98195.09;5067223;28;20017;-70
2022/08/04 08:46:31;;;;;;;6.25;2.60;;;;;;;41.40;27.09;98192.47;5067074;28;20032;-70
2022/08/04 08:49:27;;;;;;;6.75;2.83;;;;;;;41.91;25.93;98190.00;5067077;28;20029;-70
2022/08/04 08:52:17;;;;;;;10.50;2.60;;;;;;;41.08;26.37;98182.72;5067092;28;20303;-70
2022/08/04 08:55:04;;;;;;;10.00;2.72;;;;;;;41.36;26.77;98191.25;5066884;28;20017;-70
2022/08/04 08:57:54;;;;;;;5.10;3.15;;;;;;;41.48;26.77;98189.41;5066923;28;20277;-70
2022/08/04 09:00:32;;;;;;;4.73;2.87;;;;;;;41.57;26.14;98193.50;5066857;28;20343;-70
2022/08/04 09:03:26;;;;;;;6.95;2.53;;;;;;;42.40;25.83;98203.38;5066838;28;20067;-70
2022/08/04 09:06:07;;;;;;;9.20;2.90;;;;;;;41.95;25.52;98185.69;5066809;28;20359;-69
2022/08/04 09:08:54;;;;;;;5.68;2.45;;;;;;;42.21;26.77;98193.50;5066748;28;20067;-70
2022/08/04 09:11:24;;;;;;;5.93;2.95;;;;;;;42.62;25.43;98187.84;5066684;28;20031;-70
2022/08/04 09:13:50;;;;;;;;;;;;;;;42.69;26.33;98183.03;5067236;28;20182;-70
2022/08/04 09:16:20;;;;;;;3.53;2.50;;;;;;;42.42;25.56;98179.09;5066551;28;19946;-70
2022/08/04 09:18:52;;;;;;;14.32;2.88;;;;;;;42.59;24.46;98174.47;5066548;28;20131;-70
2022/08/04 09:21:24;;;;;;;4.47;2.28;;;;;;;42.75;23.88;98176.53;5065629;28;20303;-70
2022/08/04 09:24:09;;;;;;;8.45;2.33;;;;;;;42.45;24.23;98175.84;5066517;28;20017;-70
2022/08/04 09:26:48;;;;;;;15.45;2.60;;;;;;;42.82;23.92;98179.16;5066389;28;20017;-70
2022/08/04 09:29:26;;;;;;;10.48;2.25;;;;;;;42.93;24.88;98187.44;5066246;28;20032;-70
2022/08/04 09:32:10;;;;;;;5.40;2.83;;;;;;;43.21;25.04;98187.47;5066243;28;20223;-70
2022/08/04 09:34:48;;;;;;;5.90;2.38;;;;;;;43.10;23.95;98174.50;5066118;28;20032;-70
2022/08/04 09:37:44;;;;;;;6.30;2.75;;;;;;;42.82;24.73;98170.88;5066150;28;20040;-70
2022/08/04 09:40:31;;;;;;;12.32;2.65;;;;;;;42.65;24.60;98170.75;5063141;28;20028;-70
2022/08/04 09:43:12;;;;;;;12.68;2.45;;;;;;;42.52;25.37;98171.00;5066095;28;20021;-70
2022/08/04 09:45:45;;;;;;;8.60;2.50;;;;;;;43.25;24.61;98172.03;5066018;28;20288;-70
2022/08/04 09:48:19;;;;;;;4.00;2.33;;;;;;;43.29;23.50;98172.38;5066198;28;20024;-70
2022/08/04 09:50:56;;;;;;;9.70;2.28;;;;;;;42.73;23.87;98155.72;5065902;28;20032;-70
2022/08/04 09:53:47;;;;;;;6.65;1.80;;;;;;;43.13;24.14;98164.84;5066052;28;20089;-70
2022/08/04 09:56:22;;;;;;;6.75;2.20;;;;;;;43.63;23.71;98179.69;5065794;28;20092;-70
2022/08/04 09:59:06;;;;;;;3.55;2.20;;;;;;;43.48;23.11;98160.84;5065742;28;20053;-70
2022/08/04 10:01:33;;;;;;;7.20;2.15;;;;;;;43.49;23.04;98162.53;5065724;28;20100;-70
2022/08/04 10:04:01;;;;;;;11.63;2.80;;;;;;;43.22;22.65;98161.44;5065723;28;20021;-70
2022/08/04 10:06:26;;;;;;;9.63;2.55;;;;;;;43.15;23.19;98155.22;5065657;28;20025;-70
2022/08/04 10:09:29;;;;;;;4.83;2.30;;;;;;;43.28;23.31;98154.91;5065582;28;20066;-70
2022/08/04 10:12:08;;;;;;;7.55;2.20;;;;;;;43.11;23.59;98145.72;5065417;28;20260;-70
2022/08/04 10:14:46;;;;;;;8.52;1.80;;;;;;;43.39;22.51;98155.91;5065632;28;20025;-70
2022/08/04 10:17:20;;;;;;;4.55;1.70;;;;;;;43.10;22.42;98151.50;5065381;28;20025;-70
2022/08/04 10:19:55;;;;;;;4.63;1.80;;;;;;;43.11;22.53;98142.94;5065603;28;20025;-70
2022/08/04 10:22:28;;;;;;;6.53;2.15;;;;;;;42.67;23.07;98140.88;5065318;28;20020;-70
2022/08/04 10:25:22;;;;;;;8.65;2.00;;;;;;;42.92;22.80;98141.41;5065520;28;20087;-70
2022/08/04 10:27:59;;;;;;;2.33;1.60;;;;;;;42.98;23.11;98132.13;5064847;28;20048;-70
2022/08/04 10:30:27;;;;;;;6.85;2.17;;;;;;;43.36;22.75;98140.63;5065185;28;20032;-70
2022/08/04 10:33:01;;;;;;;2.95;1.73;;;;;;;43.02;22.05;98127.75;5064762;28;20099;-70
2022/08/04 10:35:30;;;;;;;6.10;1.63;;;;;;;43.21;22.63;98131.22;5065119;28;20218;-70
2022/08/04 10:38:21;;;;;;;9.27;1.80;;;;;;;42.26;23.44;98113.41;5064996;28;20047;-70
2022/08/04 10:40:49;;;;;;;;;;;;;;;42.57;22.88;98117.69;5065359;28;20021;-69
2022/08/04 10:43:38;;;;;;;4.70;1.80;;;;;;;42.16;22.96;98113.16;5065105;28;19916;-69
2022/08/04 10:46:08;;;;;;;6.07;1.80;;;;;;;42.71;23.65;98119.97;5064855;28;20194;-69
2022/08/04 10:48:42;;;;;;;7.28;1.77;;;;;;;43.01;22.76;98120.56;5064820;28;20312;-69
2022/08/04 10:51:46;;;;;;;4.13;1.70;;;;;;;42.49;23.12;98114.19;5064715;28;20020;-69
2022/08/04 10:54:25;;;;;;;5.60;1.80;;;;;;;42.12;23.25;98114.72;5046745;28;20043;-70
2022/08/04 10:57:14;;;;;;;6.95;1.90;;;;;;;41.90;23.02;98088.75;5064698;28;20020;-70
2022/08/04 10:59:51;;;;;;;2.47;1.75;;;;;;;41.45;23.61;98101.41;5064583;28;20096;-70
2022/08/04 11:02:24;;;;;;;5.95;1.73;;;;;;;42.03;23.20;98110.63;5064550;28;20317;-70
2022/08/04 11:05:18;;;;;;;4.25;1.85;;;;;;;41.83;22.76;98096.31;5064625;28;20021;-70
2022/08/04 11:07:48;;;;;;;3.28;1.40;;;;;;;41.80;22.91;98092.13;5064709;28;20078;-70
2022/08/04 11:10:19;;;;;;;5.55;1.50;;;;;;;41.73;22.63;98096.94;5064410;28;20035;-70
2022/08/04 11:12:48;;;;;;;8.30;1.85;;;;;;;41.81;22.17;98092.94;5064311;28;20055;-70
2022/08/04 11:15:21;;;;;;;5.43;2.05;;;;;;;41.71;24.05;98095.47;5064336;28;20024;-70
2022/08/04 11:17:55;;;;;;;5.18;1.90;;;;;;;41.81;22.55;98095.69;5064313;28;20036;-70
2022/08/04 11:20:40;;;;;;;7.85;1.90;;;;;;;41.64;23.06;98100.28;5064548;28;20243;-70
2022/08/04 11:23:11;;;;;;;4.65;1.80;;;;;;;41.52;23.34;98085.59;5064362;28;20049;-70
2022/08/04 11:25:42;;;;;;;;;;;;;;;41.52;23.23;98094.72;5064620;28;20037;-70
2022/08/04 11:28:17;;;;;;;5.03;1.70;;;;;;;41.66;23.13;98095.34;5063945;28;20205;-70
2022/08/04 11:31:02;;;;;;;6.07;1.77;;;;;;;41.61;23.30;98085.00;5064371;28;20380;-70
2022/08/04 11:33:50;;;;;;;4.63;1.80;;;;;;;40.98;23.95;98083.84;5064018;28;20025;-70
2022/08/04 11:36:46;;;;;;;8.48;2.20;;;;;;;41.13;23.23;98086.22;5063970;28;20029;-70
2022/08/04 11:39:19;;;;;;;5.10;1.67;;;;;;;40.68;24.42;98087.69;5064234;28;20033;-70
2022/08/04 11:41:51;;;;;;;6.10;1.88;;;;;;;40.46;23.78;98070.78;5063944;28;20021;-70
2022/08/04 11:44:30;;;;;;;2.90;1.80;;;;;;;40.50;23.86;98070.06;5063392;28;20115;-70
2022/08/04 11:47:03;;;;;;;4.15;1.95;;;;;;;40.04;24.39;98069.75;5063912;28;20074;-70
2022/08/04 11:49:43;;;;;;;2.30;1.67;;;;;;;40.06;24.06;98067.63;5063889;28;20236;-70
2022/08/04 11:52:11;;;;;;;8.30;1.90;;;;;;;39.58;24.88;98068.53;5063858;28;20066;-70
2022/08/04 11:54:37;;;;;;;12.60;2.83;;;;;;;39.15;26.56;98062.91;5063757;28;20064;-70
2022/08/04 11:57:03;;;;;;;6.95;1.70;;;;;;;38.86;25.18;98060.78;5063804;28;20024;-70
2022/08/04 11:59:32;;;;;;;3.75;1.80;;;;;;;39.01;25.96;98066.00;5064069;28;20096;-70
2022/08/04 12:02:19;;;;;;;3.17;1.75;;;;;;;38.98;25.79;98061.78;5063721;28;20244;-70
2022/08/04 12:04:59;;;;;;;3.40;1.65;;;;;;;38.75;26.18;98056.00;5063670;28;20021;-70
2022/08/04 12:07:48;;;;;;;3.40;1.80;;;;;;;38.67;25.32;98056.22;5063987;28;20090;-70
2022/08/04 12:10:50;;;;;;;4.90;1.45;;;;;;;38.32;25.64;98046.66;5063685;28;20317;-70
2022/08/04 12:13:34;;;;;;;6.28;2.28;;;;;;;38.46;26.92;98059.25;5063585;28;20021;-70
2022/08/04 12:16:35;;;;;;;8.63;1.80;;;;;;;38.17;26.31;98046.94;5063924;28;20332;-70
2022/08/04 12:19:07;;;;;;;3.40;1.55;;;;;;;38.00;27.68;98055.84;5041941;28;20120;-70